createdAt,value
2016-05-03T00:00:45.727Z,11.12
2016-05-03T00:01:45.746Z,11.12
2016-05-03T00:02:45.763Z,11.1
2016-05-03T00:03:45.751Z,11.07
2016-05-03T00:04:45.722Z,10.94
2016-05-03T00:05:45.772Z,11
2016-05-03T00:06:45.571Z,10.94
2016-05-03T00:07:45.652Z,10.99
2016-05-03T00:08:45.732Z,10.86
2016-05-03T00:09:45.752Z,10.96
2016-05-03T00:10:45.613Z,10.96
2016-05-03T00:11:45.741Z,10.92
2016-05-03T00:12:45.729Z,10.9
2016-05-03T00:13:45.731Z,10.96
2016-05-03T00:14:45.718Z,10.97
2016-05-03T00:15:45.721Z,10.86
2016-05-03T00:16:45.754Z,10.87
2016-05-03T00:17:45.711Z,10.81
2016-05-03T00:18:45.714Z,10.86
2016-05-03T00:19:45.701Z,10.82
2016-05-03T00:20:45.719Z,10.79
2016-05-03T00:21:45.409Z,10.72
2016-05-03T00:22:45.740Z,10.78
2016-05-03T00:23:45.727Z,10.72
2016-05-03T00:24:45.698Z,10.75
2016-05-03T00:25:45.425Z,10.69
2016-05-03T00:26:45.690Z,10.75
2016-05-03T00:27:45.790Z,10.75
2016-05-03T00:28:45.819Z,10.71
2016-05-03T00:29:45.539Z,10.72
2016-05-03T00:30:45.687Z,10.61
2016-05-03T00:31:45.707Z,10.61
2016-05-03T00:32:45.710Z,10.6
2016-05-03T00:33:45.368Z,10.61
2016-05-03T00:34:45.698Z,10.59
2016-05-03T00:35:45.702Z,10.61
2016-05-03T00:36:45.548Z,10.57
2016-05-03T00:37:45.538Z,10.54
2016-05-03T00:38:45.682Z,10.56
2016-05-03T00:39:45.668Z,10.53
2016-05-03T00:40:45.562Z,10.54
2016-05-03T00:41:45.673Z,10.48
2016-05-03T00:42:45.661Z,10.42
2016-05-03T00:43:45.554Z,10.42
2016-05-03T00:44:45.510Z,10.48
2016-05-03T00:45:45.668Z,10.34
2016-05-03T00:46:45.656Z,10.31
2016-05-03T00:47:45.503Z,10.3
2016-05-03T00:48:45.662Z,10.31
2016-05-03T00:49:45.508Z,10.28
2016-05-03T00:50:45.667Z,10.16
2016-05-03T00:51:45.670Z,10.2
2016-05-03T00:52:45.641Z,10.2
2016-05-03T00:53:45.644Z,10.17
2016-05-03T00:54:45.662Z,10.19
2016-05-03T00:55:45.649Z,10.12
2016-05-03T00:56:45.652Z,10.13
2016-05-03T00:57:45.670Z,10.15
2016-05-03T00:58:45.485Z,10.16
2016-05-03T00:59:45.644Z,10.16
2016-05-03T01:00:45.647Z,10.07
2016-05-03T01:01:45.665Z,10.15
2016-05-03T01:02:45.637Z,10.13
2016-05-03T01:03:45.639Z,10.07
2016-05-03T01:04:45.641Z,10.13
2016-05-03T01:05:45.645Z,10.15
2016-05-03T01:06:45.632Z,10.09
2016-05-03T01:07:45.494Z,10.02
2016-05-03T01:08:45.637Z,10.04
2016-05-03T01:09:45.656Z,9.95
2016-05-03T01:10:45.470Z,9.97
2016-05-03T01:11:45.630Z,9.89
2016-05-03T01:12:45.616Z,9.86
2016-05-03T01:13:45.634Z,9.89
2016-05-03T01:14:45.622Z,9.95
2016-05-03T01:15:45.609Z,9.97
2016-05-03T01:16:45.627Z,9.91
2016-05-03T01:17:45.473Z,9.82
2016-05-03T01:18:45.633Z,9.87
2016-05-03T01:19:45.620Z,9.84
2016-05-03T01:20:45.607Z,9.86
2016-05-03T01:21:45.609Z,9.91
2016-05-03T01:22:45.612Z,9.83
2016-05-03T01:23:45.459Z,9.83
2016-05-03T01:24:45.603Z,9.83
2016-05-03T01:25:45.605Z,9.82
2016-05-03T01:26:45.592Z,9.83
2016-05-03T01:27:45.595Z,9.89
2016-05-03T01:28:45.581Z,9.84
2016-05-03T01:29:45.584Z,9.86
2016-05-03T01:30:45.446Z,9.82
2016-05-03T01:31:45.590Z,9.87
2016-05-03T01:32:45.452Z,9.87
2016-05-03T01:33:45.423Z,9.84
2016-05-03T01:34:45.583Z,9.8
2016-05-03T01:35:45.585Z,9.86
2016-05-03T01:36:45.588Z,9.77
2016-05-03T01:37:45.434Z,9.82
2016-05-03T01:38:45.577Z,9.76
2016-05-03T01:39:45.580Z,9.83
2016-05-03T01:40:45.567Z,9.8
2016-05-03T01:41:45.586Z,9.76
2016-05-03T01:42:45.572Z,9.77
2016-05-03T01:43:45.419Z,9.72
2016-05-03T01:44:45.577Z,9.74
2016-05-03T01:45:45.596Z,9.69
2016-05-03T01:46:45.568Z,9.68
2016-05-03T01:47:45.415Z,9.72
2016-05-03T01:48:45.557Z,9.62
2016-05-03T01:49:45.560Z,9.65
2016-05-03T01:50:45.548Z,9.61
2016-05-03T01:51:45.550Z,9.61
2016-05-03T01:52:45.554Z,9.64
2016-05-03T01:53:45.415Z,9.64
2016-05-03T01:54:45.542Z,9.61
2016-05-03T01:55:45.546Z,9.54
2016-05-03T01:56:45.392Z,9.46
2016-05-03T01:57:45.550Z,9.58
2016-05-03T01:58:45.553Z,9.58
2016-05-03T01:59:45.540Z,9.56
2016-05-03T02:00:45.559Z,9.51
2016-05-03T02:01:45.389Z,9.46
2016-05-03T02:02:45.548Z,9.51
2016-05-03T02:03:45.536Z,9.47
2016-05-03T02:04:45.554Z,9.44
2016-05-03T02:05:45.370Z,9.44
2016-05-03T02:06:45.386Z,9.48
2016-05-03T02:07:45.515Z,9.47
2016-05-03T02:08:45.502Z,9.4
2016-05-03T02:09:45.536Z,9.37
2016-05-03T02:10:45.352Z,9.39
2016-05-03T02:11:45.227Z,9.36
2016-05-03T02:12:45.497Z,9.36
2016-05-03T02:13:45.357Z,9.48
2016-05-03T02:14:45.533Z,9.36
2016-05-03T02:15:45.521Z,9.46
2016-05-03T02:16:45.365Z,9.39
2016-05-03T02:17:45.336Z,9.44
2016-05-03T02:18:45.513Z,9.39
2016-05-03T02:19:45.501Z,9.43
2016-05-03T02:20:45.535Z,9.31
2016-05-03T02:21:45.488Z,9.31
2016-05-03T02:22:45.349Z,9.29
2016-05-03T02:23:45.493Z,9.39
2016-05-03T02:24:45.464Z,9.28
2016-05-03T02:25:45.326Z,9.28
2016-05-03T02:26:45.485Z,9.31
2016-05-03T02:27:45.488Z,9.22
2016-05-03T02:28:45.475Z,9.13
2016-05-03T02:29:45.321Z,9.18
2016-05-03T02:30:45.496Z,9.16
2016-05-03T02:31:45.468Z,9.13
2016-05-03T02:32:45.314Z,9.18
2016-05-03T02:33:45.456Z,9.16
2016-05-03T02:34:45.476Z,9.11
2016-05-03T02:35:45.525Z,9.23
2016-05-03T02:36:45.325Z,9.16
2016-05-03T02:37:45.467Z,9.21
2016-05-03T02:38:45.471Z,9.21
2016-05-03T02:39:45.442Z,9.23
2016-05-03T02:40:45.475Z,9.16
2016-05-03T02:41:45.463Z,9.22
2016-05-03T02:42:45.466Z,9.22
2016-05-03T02:43:45.453Z,9.13
2016-05-03T02:44:45.441Z,9.18
2016-05-03T02:45:45.302Z,9.18
2016-05-03T02:46:45.305Z,9.18
2016-05-03T02:47:45.136Z,9.23
2016-05-03T02:48:45.451Z,9.19
2016-05-03T02:49:45.313Z,9.19
2016-05-03T02:50:45.440Z,9.18
2016-05-03T02:51:45.256Z,9.23
2016-05-03T02:52:47.165Z,9.21
2016-05-03T02:53:45.418Z,9.16
2016-05-03T02:54:45.421Z,9.23
2016-05-03T02:55:45.455Z,9.19
2016-05-03T02:56:45.426Z,9.21
2016-05-03T02:57:45.413Z,9.23
2016-05-03T02:58:45.432Z,9.16
2016-05-03T02:59:45.090Z,9.14
2016-05-03T03:00:45.390Z,9.18
2016-05-03T03:01:45.376Z,9.16
2016-05-03T03:02:45.239Z,9.14
2016-05-03T03:03:45.382Z,9.14
2016-05-03T03:04:45.401Z,9.08
2016-05-03T03:05:45.559Z,9.11
2016-05-03T03:06:45.390Z,9.06
2016-05-03T03:07:45.299Z,9.08
2016-05-03T03:08:45.395Z,9.1
2016-05-03T03:09:45.382Z,9.14
2016-05-03T03:10:45.401Z,9.06
2016-05-03T03:11:45.200Z,9.06
2016-05-03T03:12:45.219Z,9.06
2016-05-03T03:13:45.377Z,9.03
2016-05-03T03:14:45.381Z,9.02
2016-05-03T03:15:45.352Z,9.06
2016-05-03T03:16:45.355Z,9.03
2016-05-03T03:17:45.358Z,9
2016-05-03T03:18:45.360Z,9
2016-05-03T03:19:45.347Z,9.02
2016-05-03T03:20:45.349Z,9
2016-05-03T03:21:45.352Z,8.91
2016-05-03T03:22:45.511Z,8.87
2016-05-03T03:23:45.342Z,8.87
2016-05-03T03:24:45.344Z,8.92
2016-05-03T03:25:45.363Z,8.87
2016-05-03T03:26:45.334Z,8.87
2016-05-03T03:27:45.337Z,8.87
2016-05-03T03:28:45.324Z,8.91
2016-05-03T03:29:45.312Z,8.87
2016-05-03T03:30:45.330Z,8.87
2016-05-03T03:31:45.349Z,8.92
2016-05-03T03:32:45.335Z,8.91
2016-05-03T03:33:45.338Z,8.88
2016-05-03T03:34:45.340Z,8.89
2016-05-03T03:35:45.203Z,8.91
2016-05-03T03:36:45.331Z,8.94
2016-05-03T03:37:45.192Z,8.88
2016-05-03T03:38:45.164Z,8.89
2016-05-03T03:39:45.307Z,8.89
2016-05-03T03:40:45.122Z,8.89
2016-05-03T03:41:45.265Z,8.88
2016-05-03T03:42:45.143Z,8.94
2016-05-03T03:43:45.287Z,8.85
2016-05-03T03:44:45.274Z,8.91
2016-05-03T03:45:45.275Z,8.92
2016-05-03T03:46:45.278Z,8.88
2016-05-03T03:47:45.125Z,8.91
2016-05-03T03:48:45.253Z,8.88
2016-05-03T03:49:45.474Z,9
2016-05-03T03:50:45.103Z,9
2016-05-03T03:51:45.261Z,8.95
2016-05-03T03:52:45.295Z,9.06
2016-05-03T03:53:45.235Z,9.11
2016-05-03T03:54:45.113Z,9.08
2016-05-03T03:55:45.271Z,9.08
2016-05-03T03:56:45.275Z,9.13
2016-05-03T03:57:45.262Z,9.08
2016-05-03T03:58:45.232Z,9.16
2016-05-03T03:59:45.235Z,9.1
2016-05-03T04:00:45.254Z,9.11
2016-05-03T04:01:44.913Z,9.13
2016-05-03T04:02:45.229Z,9.1
2016-05-03T04:03:45.074Z,9.06
2016-05-03T04:04:45.234Z,9.14
2016-05-03T04:05:45.252Z,9.19
2016-05-03T04:06:45.224Z,9.19
2016-05-03T04:07:45.210Z,9.25
2016-05-03T04:08:45.212Z,9.1
2016-05-03T04:09:45.215Z,9.11
2016-05-03T04:10:45.234Z,9.21
2016-05-03T04:11:45.034Z,9.13
2016-05-03T04:12:45.053Z,9.18
2016-05-03T04:13:45.243Z,9.25
2016-05-03T04:14:45.057Z,9.26
2016-05-03T04:15:45.044Z,9.32
2016-05-03T04:16:45.234Z,9.28
2016-05-03T04:17:45.191Z,9.28
2016-05-03T04:18:45.022Z,9.28
2016-05-03T04:19:45.196Z,9.23
2016-05-03T04:20:45.027Z,9.14
2016-05-03T04:21:45.034Z,9.18
2016-05-03T04:22:45.348Z,9.14
2016-05-03T04:23:45.117Z,9.18
2016-05-03T04:24:45.338Z,9.06
2016-05-03T04:25:45.232Z,9.03
2016-05-03T04:26:45.402Z,9.06
2016-05-03T04:27:45.437Z,9.13
2016-05-03T04:28:45.424Z,9.1
2016-05-03T04:29:45.460Z,9.11
2016-05-03T04:30:45.463Z,9.19
2016-05-03T04:31:45.465Z,9.14
2016-05-03T04:32:45.473Z,9.31
2016-05-03T04:33:45.483Z,9.32
2016-05-03T04:34:45.492Z,9.29
2016-05-03T04:35:45.392Z,9.41
2016-05-03T04:36:45.508Z,9.37
2016-05-03T04:37:45.452Z,9.41
2016-05-03T04:38:45.519Z,9.44
2016-05-03T04:39:45.492Z,9.41
2016-05-03T04:40:45.498Z,9.5
2016-05-03T04:41:45.519Z,9.43
2016-05-03T04:42:45.334Z,9.47
2016-05-03T04:43:45.495Z,9.43
2016-05-03T04:44:45.357Z,9.43
2016-05-03T04:45:45.517Z,9.4
2016-05-03T04:46:45.520Z,9.41
2016-05-03T04:47:45.351Z,9.37
2016-05-03T04:48:45.495Z,9.41
2016-05-03T04:49:45.482Z,9.39
2016-05-03T04:50:45.470Z,9.37
2016-05-03T04:51:45.473Z,9.32
2016-05-03T04:52:45.491Z,9.39
2016-05-03T04:53:45.478Z,9.31
2016-05-03T04:54:45.481Z,9.34
2016-05-03T04:55:45.468Z,9.36
2016-05-03T04:56:45.471Z,9.32
2016-05-03T04:57:45.473Z,9.29
2016-05-03T04:58:45.476Z,9.29
2016-05-03T04:59:45.479Z,9.32
2016-05-03T05:00:45.481Z,9.26
2016-05-03T05:01:45.453Z,9.36
2016-05-03T05:02:45.456Z,9.26
2016-05-03T05:03:45.474Z,9.39
2016-05-03T05:04:45.476Z,9.23
2016-05-03T05:05:45.292Z,9.25
2016-05-03T05:06:45.450Z,9.31
2016-05-03T05:07:46.516Z,9.31
2016-05-03T05:08:45.472Z,9.36
2016-05-03T05:09:45.459Z,9.25
2016-05-03T05:10:45.508Z,9.31
2016-05-03T05:11:45.433Z,9.31
2016-05-03T05:12:45.280Z,9.36
2016-05-03T05:13:45.454Z,9.31
2016-05-03T05:14:45.441Z,9.29
2016-05-03T05:15:45.444Z,9.36
2016-05-03T05:16:45.430Z,9.39
2016-05-03T05:17:45.121Z,9.36
2016-05-03T05:18:45.436Z,9.4
2016-05-03T05:19:45.423Z,9.43
2016-05-03T05:20:45.410Z,9.51
2016-05-03T05:21:45.444Z,9.5
2016-05-03T05:22:45.682Z,9.66
2016-05-03T05:23:45.418Z,9.89
2016-05-03T05:24:45.437Z,10.1
2016-05-03T05:25:45.408Z,10.41
2016-05-03T05:26:45.395Z,10.81
2016-05-03T05:27:45.257Z,11.23
2016-05-03T05:28:45.431Z,11.4
2016-05-03T05:29:45.434Z,11.8
2016-05-03T05:30:45.421Z,12.07
2016-05-03T05:31:45.409Z,12.25
2016-05-03T05:32:45.411Z,12.65
2016-05-03T05:33:45.258Z,12.98
2016-05-03T05:34:45.432Z,13.19
2016-05-03T05:35:45.419Z,13.47
2016-05-03T05:36:45.391Z,13.68
2016-05-03T05:37:46.706Z,13.89
2016-05-03T05:38:45.442Z,14.1
2016-05-03T05:39:45.400Z,14.35
2016-05-03T05:40:45.417Z,14.51
2016-05-03T05:41:45.435Z,14.63
2016-05-03T05:42:45.422Z,14.68
2016-05-03T05:43:45.425Z,14.92
2016-05-03T05:44:45.443Z,15.02
2016-05-03T05:45:45.430Z,15.19
2016-05-03T05:46:45.433Z,15.44
2016-05-03T05:47:45.452Z,15.65
2016-05-03T05:48:45.438Z,15.92
2016-05-03T05:49:45.426Z,16.1
2016-05-03T05:50:45.444Z,16.09
2016-05-03T05:51:45.432Z,16.04
2016-05-03T05:52:45.449Z,16.15
2016-05-03T05:53:45.452Z,16.28
2016-05-03T05:54:45.455Z,16.41
2016-05-03T05:55:45.488Z,16.54
2016-05-03T05:56:45.460Z,16.51
2016-05-03T05:57:45.463Z,16.58
2016-05-03T05:58:45.528Z,16.72
2016-05-03T05:59:45.515Z,16.78
2016-05-03T06:00:45.502Z,16.76
2016-05-03T06:01:45.504Z,16.83
2016-05-03T06:02:45.492Z,16.96
2016-05-03T06:03:45.509Z,16.94
2016-05-03T06:04:45.513Z,17.06
2016-05-03T06:05:45.532Z,17.06
2016-05-03T06:06:45.347Z,17.11
2016-05-03T06:07:45.677Z,16.81
2016-05-03T06:08:45.367Z,16.79
2016-05-03T06:09:45.526Z,16.66
2016-05-03T06:10:45.529Z,16.41
2016-05-03T06:11:45.548Z,16.04
2016-05-03T06:12:45.425Z,15.64
2016-05-03T06:13:45.583Z,15.29
2016-05-03T06:14:45.415Z,14.99
2016-05-03T06:15:45.589Z,14.62
2016-05-03T06:16:45.577Z,14.44
2016-05-03T06:17:45.439Z,14.18
2016-05-03T06:18:45.598Z,13.97
2016-05-03T06:19:45.413Z,13.83
2016-05-03T06:20:45.588Z,13.7
2016-05-03T06:21:45.574Z,13.54
2016-05-03T06:22:45.765Z,13.52
2016-05-03T06:23:45.596Z,13.68
2016-05-03T06:24:45.599Z,13.95
2016-05-03T06:25:45.476Z,14.33
2016-05-03T06:26:45.618Z,14.65
2016-05-03T06:27:45.607Z,15.04
2016-05-03T06:28:45.609Z,15.55
2016-05-03T06:29:45.627Z,15.94
2016-05-03T06:30:45.318Z,16.32
2016-05-03T06:31:45.617Z,16.74
2016-05-03T06:32:45.620Z,17.09
2016-05-03T06:33:45.623Z,17.36
2016-05-03T06:34:45.625Z,17.34
2016-05-03T06:35:45.675Z,17.33
2016-05-03T06:36:45.490Z,17.48
2016-05-03T06:37:45.524Z,17.59
2016-05-03T06:38:45.650Z,17.85
2016-05-03T06:39:45.514Z,18.1
2016-05-03T06:40:45.703Z,18.37
2016-05-03T06:41:45.675Z,18.53
2016-05-03T06:42:45.522Z,18.66
2016-05-03T06:43:45.681Z,18.59
2016-05-03T06:44:45.527Z,18.7
2016-05-03T06:45:45.544Z,19.02
2016-05-03T06:46:45.735Z,19.21
2016-05-03T06:47:45.722Z,19.29
2016-05-03T06:48:45.413Z,19.12
2016-05-03T06:49:45.431Z,18.99
2016-05-03T06:50:45.590Z,18.92
2016-05-03T06:51:45.733Z,18.95
2016-05-03T06:52:45.596Z,19.12
2016-05-03T06:53:45.754Z,19.24
2016-05-03T06:54:45.757Z,19.27
2016-05-03T06:55:45.806Z,19.45
2016-05-03T06:56:45.607Z,19.39
2016-05-03T06:57:45.765Z,19.15
2016-05-03T06:58:45.815Z,19.16
2016-05-03T06:59:45.802Z,19.07
2016-05-03T07:00:45.804Z,19.11
2016-05-03T07:01:45.807Z,19.33
2016-05-03T07:02:45.810Z,19.34
2016-05-03T07:03:45.656Z,19.33
2016-05-03T07:04:45.831Z,18.95
2016-05-03T07:05:45.709Z,18.89
2016-05-03T07:06:45.852Z,18.58
2016-05-03T07:07:45.542Z,18.41
2016-05-03T07:08:45.685Z,18.31
2016-05-03T07:09:45.859Z,18.08
2016-05-03T07:10:45.925Z,18.15
2016-05-03T07:11:45.897Z,18.43
2016-05-03T07:12:45.743Z,18.8
2016-05-03T07:13:45.903Z,19.11
2016-05-03T07:14:45.733Z,19.3
2016-05-03T07:15:45.939Z,19.47
2016-05-03T07:16:45.753Z,19.45
2016-05-03T07:17:45.928Z,19.49
2016-05-03T07:18:45.931Z,19.39
2016-05-03T07:19:45.949Z,19.26
2016-05-03T07:20:45.764Z,19.21
2016-05-03T07:21:45.955Z,19.22
2016-05-03T07:22:46.427Z,19.27
2016-05-03T07:23:45.975Z,19.48
2016-05-03T07:24:45.822Z,19.92
2016-05-03T07:25:45.981Z,20.14
2016-05-03T07:26:45.983Z,20.11
2016-05-03T07:27:45.971Z,20.14
2016-05-03T07:28:46.004Z,20.04
2016-05-03T07:29:45.992Z,20.21
2016-05-03T07:30:45.869Z,20.36
2016-05-03T07:31:46.029Z,20.47
2016-05-03T07:32:45.704Z,20.55
2016-05-03T07:33:46.065Z,20.4
2016-05-03T07:34:46.037Z,20.37
2016-05-03T07:35:46.054Z,20.37
2016-05-03T07:36:46.042Z,20.56
2016-05-03T07:37:46.201Z,20.44
2016-05-03T07:38:45.906Z,20.36
2016-05-03T07:39:46.082Z,20.39
2016-05-03T07:40:46.084Z,20.34
2016-05-03T07:41:46.071Z,20.25
2016-05-03T07:42:46.090Z,19.99
2016-05-03T07:43:46.092Z,19.86
2016-05-03T07:44:46.111Z,19.85
2016-05-03T07:45:46.113Z,19.82
2016-05-03T07:46:46.116Z,19.82
2016-05-03T07:47:46.119Z,19.74
2016-05-03T07:48:45.981Z,19.7
2016-05-03T07:49:46.139Z,19.49
2016-05-03T07:50:46.142Z,19.27
2016-05-03T07:51:46.005Z,19.31
2016-05-03T07:52:46.147Z,19.44
2016-05-03T07:53:46.166Z,19.69
2016-05-03T07:54:46.044Z,19.96
2016-05-03T07:55:46.016Z,20.34
2016-05-03T07:56:46.189Z,20.6
2016-05-03T07:57:46.176Z,20.44
2016-05-03T07:58:47.648Z,20.5
2016-05-03T07:59:46.182Z,20.26
2016-05-03T08:00:46.216Z,20.14
2016-05-03T08:01:46.203Z,20.22
2016-05-03T08:02:46.238Z,20.32
2016-05-03T08:03:46.224Z,20.31
2016-05-03T08:04:46.243Z,20.21
2016-05-03T08:05:46.089Z,20.18
2016-05-03T08:06:46.091Z,20
2016-05-03T08:07:46.141Z,19.47
2016-05-03T08:08:45.972Z,19.29
2016-05-03T08:09:46.271Z,19.15
2016-05-03T08:10:46.258Z,19.12
2016-05-03T08:11:46.277Z,19.31
2016-05-03T08:12:46.295Z,19.55
2016-05-03T08:13:46.281Z,19.7
2016-05-03T08:14:46.348Z,19.59
2016-05-03T08:15:46.303Z,19.74
2016-05-03T08:16:46.150Z,19.76
2016-05-03T08:17:46.309Z,19.92
2016-05-03T08:18:46.311Z,19.91
2016-05-03T08:19:46.314Z,19.82
2016-05-03T08:20:46.347Z,19.84
2016-05-03T08:21:46.350Z,19.79
2016-05-03T08:22:46.353Z,19.77
2016-05-03T08:23:46.356Z,19.88
2016-05-03T08:24:46.358Z,20.03
2016-05-03T08:25:46.377Z,20.22
2016-05-03T08:26:46.380Z,20.31
2016-05-03T08:27:46.241Z,20.22
2016-05-03T08:28:46.400Z,20.36
2016-05-03T08:29:46.388Z,20.7
2016-05-03T08:30:46.391Z,20.74
2016-05-03T08:31:46.424Z,20.85
2016-05-03T08:32:46.411Z,21.03
2016-05-03T08:33:46.413Z,21
2016-05-03T08:34:46.432Z,21.12
2016-05-03T08:35:46.279Z,21
2016-05-03T08:36:46.437Z,20.85
2016-05-03T08:37:46.315Z,20.9
2016-05-03T08:38:46.146Z,21.06
2016-05-03T08:39:46.461Z,20.96
2016-05-03T08:40:46.495Z,20.75
2016-05-03T08:41:46.310Z,20.66
2016-05-03T08:42:46.469Z,20.67
2016-05-03T08:43:46.315Z,20.58
2016-05-03T08:44:46.476Z,20.02
2016-05-03T08:45:46.493Z,19.58
2016-05-03T08:46:46.339Z,19.4
2016-05-03T08:47:46.359Z,19.08
2016-05-03T08:48:46.517Z,18.74
2016-05-03T08:49:46.535Z,18.56
2016-05-03T08:50:46.538Z,18.13
2016-05-03T08:51:46.556Z,17.86
2016-05-03T08:52:46.699Z,17.9
2016-05-03T08:53:46.561Z,17.86
2016-05-03T08:54:46.408Z,17.87
2016-05-03T08:55:46.427Z,17.78
2016-05-03T08:56:46.555Z,17.65
2016-05-03T08:57:46.416Z,17.67
2016-05-03T08:58:46.575Z,17.59
2016-05-03T08:59:46.594Z,17.59
2016-05-03T09:00:46.611Z,17.59
2016-05-03T09:01:46.583Z,17.63
2016-05-03T09:02:46.601Z,17.71
2016-05-03T09:03:46.604Z,17.78
2016-05-03T09:04:46.451Z,17.83
2016-05-03T09:05:46.438Z,17.9
2016-05-03T09:06:46.612Z,17.8
2016-05-03T09:07:46.615Z,17.8
2016-05-03T09:08:46.618Z,17.79
2016-05-03T09:09:46.635Z,17.85
2016-05-03T09:10:46.623Z,17.74
2016-05-03T09:11:46.626Z,17.74
2016-05-03T09:12:46.644Z,17.86
2016-05-03T09:13:46.506Z,17.85
2016-05-03T09:14:46.649Z,17.74
2016-05-03T09:15:46.651Z,17.68
2016-05-03T09:16:46.654Z,17.63
2016-05-03T09:17:46.657Z,17.6
2016-05-03T09:18:46.659Z,17.65
2016-05-03T09:19:46.662Z,17.57
2016-05-03T09:20:46.681Z,17.54
2016-05-03T09:21:46.667Z,17.64
2016-05-03T09:22:46.972Z,17.68
2016-05-03T09:23:46.705Z,17.79
2016-05-03T09:24:46.708Z,17.86
2016-05-03T09:25:46.694Z,17.92
2016-05-03T09:26:46.697Z,17.97
2016-05-03T09:27:46.700Z,17.83
2016-05-03T09:28:46.703Z,17.71
2016-05-03T09:29:46.580Z,17.71
2016-05-03T09:30:46.708Z,17.82
2016-05-03T09:31:46.569Z,17.94
2016-05-03T09:32:46.572Z,17.94
2016-05-03T09:33:46.715Z,17.98
2016-05-03T09:34:46.719Z,18.03
2016-05-03T09:35:46.752Z,18.04
2016-05-03T09:36:46.724Z,18.07
2016-05-03T09:37:46.930Z,18.05
2016-05-03T09:38:46.745Z,18.26
2016-05-03T09:39:46.763Z,18.45
2016-05-03T09:40:46.751Z,18.7
2016-05-03T09:41:46.753Z,18.93
2016-05-03T09:42:46.771Z,19.04
2016-05-03T09:43:46.774Z,18.98
2016-05-03T09:44:46.793Z,18.88
2016-05-03T09:45:46.795Z,18.89
2016-05-03T09:46:46.626Z,18.77
2016-05-03T09:47:46.785Z,18.73
2016-05-03T09:48:46.787Z,18.6
2016-05-03T09:49:46.806Z,18.56
2016-05-03T09:50:46.808Z,18.58
2016-05-03T09:51:46.796Z,18.75
2016-05-03T09:52:47.455Z,18.95
2016-05-03T09:53:46.644Z,18.89
2016-05-03T09:54:46.820Z,18.83
2016-05-03T09:55:46.822Z,18.8
2016-05-03T09:56:46.841Z,18.8
2016-05-03T09:57:46.687Z,18.73
2016-05-03T09:58:46.846Z,18.58
2016-05-03T09:59:46.849Z,18.41
2016-05-03T10:00:46.866Z,18.25
2016-05-03T10:01:46.855Z,18.11
2016-05-03T10:02:46.872Z,18.03
2016-05-03T10:03:46.702Z,17.83
2016-05-03T10:04:46.862Z,17.76
2016-05-03T10:05:46.896Z,17.76
2016-05-03T10:06:46.867Z,17.72
2016-05-03T10:07:46.838Z,17.78
2016-05-03T10:08:46.716Z,17.71
2016-05-03T10:09:46.875Z,17.72
2016-05-03T10:10:46.721Z,17.71
2016-05-03T10:11:46.896Z,17.72
2016-05-03T10:12:46.743Z,17.76
2016-05-03T10:13:46.917Z,17.82
2016-05-03T10:14:46.764Z,17.76
2016-05-03T10:15:46.907Z,17.67
2016-05-03T10:16:46.910Z,17.64
2016-05-03T10:17:46.912Z,17.64
2016-05-03T10:18:46.931Z,17.57
2016-05-03T10:19:46.917Z,17.72
2016-05-03T10:20:46.921Z,17.78
2016-05-03T10:21:46.923Z,17.8
2016-05-03T10:22:47.472Z,17.95
2016-05-03T10:23:46.928Z,17.94
2016-05-03T10:24:46.947Z,18.01
2016-05-03T10:25:46.934Z,18.25
2016-05-03T10:26:46.937Z,18.35
2016-05-03T10:27:46.955Z,18.47
2016-05-03T10:28:46.958Z,18.66
2016-05-03T10:29:46.820Z,18.68
2016-05-03T10:30:46.994Z,18.73
2016-05-03T10:31:46.966Z,18.73
2016-05-03T10:32:46.844Z,18.71
2016-05-03T10:33:46.986Z,18.74
2016-05-03T10:34:46.989Z,18.78
2016-05-03T10:35:46.992Z,18.68
2016-05-03T10:36:47.027Z,18.41
2016-05-03T10:37:47.122Z,18.4
2016-05-03T10:38:47.016Z,18.44
2016-05-03T10:39:46.707Z,18.33
2016-05-03T10:40:47.005Z,18.2
2016-05-03T10:41:46.868Z,18.05
2016-05-03T10:42:47.027Z,17.92
2016-05-03T10:43:47.029Z,17.82
2016-05-03T10:44:46.876Z,17.68
2016-05-03T10:45:47.035Z,17.68
2016-05-03T10:46:47.021Z,17.56
2016-05-03T10:47:47.040Z,17.44
2016-05-03T10:48:47.042Z,17.14
2016-05-03T10:49:47.045Z,16.93
2016-05-03T10:50:46.907Z,16.9
2016-05-03T10:51:47.051Z,16.65
2016-05-03T10:52:47.054Z,16.42
2016-05-03T10:53:46.900Z,16.28
2016-05-03T10:54:47.058Z,16.17
2016-05-03T10:55:47.062Z,16.01
2016-05-03T10:56:47.064Z,15.98
2016-05-03T10:57:46.911Z,15.79
2016-05-03T10:58:47.070Z,15.77
2016-05-03T10:59:47.072Z,15.7
2016-05-03T11:00:47.138Z,15.7
2016-05-03T11:01:46.937Z,15.65
2016-05-03T11:02:47.096Z,15.65
2016-05-03T11:03:46.942Z,15.57
2016-05-03T11:04:47.086Z,15.4
2016-05-03T11:05:47.104Z,15.25
2016-05-03T11:06:46.982Z,15.17
2016-05-03T11:07:47.125Z,14.97
2016-05-03T11:08:46.955Z,14.86
2016-05-03T11:09:46.959Z,14.6
2016-05-03T11:10:47.102Z,14.6
2016-05-03T11:11:47.198Z,14.48
2016-05-03T11:12:47.108Z,14.35
2016-05-03T11:13:47.125Z,14.3
2016-05-03T11:14:47.112Z,14.32
2016-05-03T11:15:47.115Z,14.26
2016-05-03T11:16:47.134Z,14.2
2016-05-03T11:17:47.137Z,14.11
2016-05-03T11:18:47.123Z,14.12
2016-05-03T11:19:47.142Z,14.11
2016-05-03T11:20:47.144Z,14.07
2016-05-03T11:21:46.976Z,14.14
2016-05-03T11:22:47.150Z,14
2016-05-03T11:23:47.137Z,14.03
2016-05-03T11:24:46.968Z,13.93
2016-05-03T11:25:47.158Z,13.86
2016-05-03T11:26:47.161Z,13.85
2016-05-03T11:27:47.132Z,13.83
2016-05-03T11:28:47.134Z,13.9
2016-05-03T11:29:46.825Z,13.85
2016-05-03T11:30:47.156Z,13.83
2016-05-03T11:31:47.127Z,13.92
2016-05-03T11:32:47.067Z,13.9
2016-05-03T11:33:47.148Z,13.93
2016-05-03T11:34:47.166Z,13.87
2016-05-03T11:35:47.153Z,13.81
2016-05-03T11:36:47.156Z,13.72
2016-05-03T11:37:47.018Z,13.65
2016-05-03T11:38:47.161Z,13.59
2016-05-03T11:39:47.180Z,13.5
2016-05-03T11:40:47.182Z,13.54
2016-05-03T11:41:47.170Z,13.46
2016-05-03T11:42:47.157Z,13.46
2016-05-03T11:43:47.144Z,13.52
2016-05-03T11:44:47.178Z,13.52
2016-05-03T11:45:47.196Z,13.46
2016-05-03T11:46:47.011Z,13.41
2016-05-03T11:47:47.170Z,13.3
2016-05-03T11:48:47.860Z,13.31
2016-05-03T11:49:47.207Z,13.37
2016-05-03T11:50:47.179Z,13.33
2016-05-03T11:51:47.025Z,13.19
2016-05-03T11:52:48.949Z,13.2
2016-05-03T11:53:47.186Z,13.22
2016-05-03T11:54:47.174Z,13.16
2016-05-03T11:55:47.020Z,13.05
2016-05-03T11:56:47.179Z,12.94
2016-05-03T11:57:47.166Z,12.95
2016-05-03T11:58:47.184Z,12.94
2016-05-03T11:59:47.172Z,12.95
2016-05-03T12:00:47.189Z,13
2016-05-03T12:01:47.178Z,13.03
2016-05-03T12:02:47.023Z,13
2016-05-03T12:03:47.400Z,13.01
2016-05-03T12:04:47.185Z,13.01
2016-05-03T12:05:46.891Z,13.12
2016-05-03T12:06:47.191Z,13.01
2016-05-03T12:07:47.240Z,13
2016-05-03T12:08:47.180Z,13.05
2016-05-03T12:09:47.042Z,12.97
2016-05-03T12:10:46.905Z,13
2016-05-03T12:11:47.266Z,12.93
2016-05-03T12:12:47.113Z,12.95
2016-05-03T12:13:47.037Z,12.93
2016-05-03T12:14:47.181Z,12.83
2016-05-03T12:15:47.183Z,12.79
2016-05-03T12:16:47.185Z,12.76
2016-05-03T12:17:47.173Z,12.68
2016-05-03T12:18:47.191Z,12.62
2016-05-03T12:19:47.038Z,12.62
2016-05-03T12:20:47.197Z,12.54
2016-05-03T12:21:47.199Z,12.49
2016-05-03T12:22:47.046Z,12.6
2016-05-03T12:23:47.190Z,12.58
2016-05-03T12:24:47.193Z,12.5
2016-05-03T12:25:47.195Z,12.5
2016-05-03T12:26:47.197Z,12.55
2016-05-03T12:27:47.184Z,12.57
2016-05-03T12:28:47.203Z,12.65
2016-05-03T12:29:47.189Z,12.7
2016-05-03T12:30:47.192Z,12.67
2016-05-03T12:31:47.179Z,12.67
2016-05-03T12:32:47.182Z,12.76
2016-05-03T12:33:47.201Z,12.78
2016-05-03T12:34:47.187Z,12.93
2016-05-03T12:35:47.189Z,12.98
2016-05-03T12:36:47.208Z,13.18
2016-05-03T12:37:47.211Z,13.27
2016-05-03T12:38:47.183Z,13.5
2016-05-03T12:39:47.217Z,13.49
2016-05-03T12:40:47.203Z,13.54
2016-05-03T12:41:47.222Z,13.67
2016-05-03T12:42:47.208Z,13.83
2016-05-03T12:43:47.040Z,13.89
2016-05-03T12:44:47.229Z,14.03
2016-05-03T12:45:46.889Z,14.14
2016-05-03T12:46:47.049Z,14.18
2016-05-03T12:47:47.207Z,14.29
2016-05-03T12:48:47.210Z,14.35
2016-05-03T12:49:47.227Z,14.43
2016-05-03T12:50:47.230Z,14.53
2016-05-03T12:51:47.217Z,14.5
2016-05-03T12:52:47.282Z,14.53
2016-05-03T12:53:47.223Z,14.36
2016-05-03T12:54:47.209Z,14.33
2016-05-03T12:55:47.259Z,14.37
2016-05-03T12:56:47.262Z,14.29
2016-05-03T12:57:47.234Z,14.18
2016-05-03T12:58:47.081Z,14.2
2016-05-03T12:59:47.240Z,14.18
2016-05-03T13:00:47.242Z,14.05
2016-05-03T13:01:47.089Z,13.96
2016-05-03T13:02:47.231Z,13.96
2016-05-03T13:03:47.234Z,14
2016-05-03T13:04:47.222Z,13.95